Time;durP1;ratioP1;P1;durP2;ratioP2;P2;SDS_P1;SDS_P2;PMS_P1;PMS_P2;Temp;Humidity;BMP_temperature;BMP_pressure;BME280_temperature;BME280_humidity;BME280_pressure;Samples;Min_cycle;Max_cycle;Signal;HPM_P1;HPM_P2
2023/04/18 00:00:12;;;;;;;48.55;10.60;;;14.30;83.90;;;;;;5046003;28;20052;-55
2023/04/18 00:02:38;;;;;;;52.28;9.88;;;14.30;84.10;;;;;;5028273;28;20104;-55
2023/04/18 00:05:06;;;;;;;49.42;11.00;;;14.40;84.20;;;;;;5044695;28;20028;-55
2023/04/18 00:07:31;;;;;;;49.83;10.85;;;14.30;84.00;;;;;;5044163;28;20045;-55
2023/04/18 00:09:57;;;;;;;65.22;10.85;;;14.30;83.90;;;;;;5044204;28;20056;-55
2023/04/18 00:12:22;;;;;;;55.33;10.27;;;14.30;84.00;;;;;;5044378;28;20040;-55
2023/04/18 00:14:49;;;;;;;49.45;10.45;;;14.30;84.00;;;;;;5044310;28;20033;-55
2023/04/18 00:17:15;;;;;;;44.50;9.32;;;14.30;84.10;;;;;;5044238;28;20033;-55
2023/04/18 00:19:40;;;;;;;47.92;10.43;;;14.30;84.20;;;;;;5044542;28;20203;-55
2023/04/18 00:22:07;;;;;;;41.83;9.88;;;14.20;84.80;;;;;;5027923;28;20030;-55
2023/04/18 00:24:32;;;;;;;45.72;9.52;;;14.20;84.20;;;;;;5045627;28;20101;-55
2023/04/18 00:26:58;;;;;;;53.15;9.45;;;14.20;84.20;;;;;;5045761;28;20025;-54
2023/04/18 00:29:23;;;;;;;53.08;9.85;;;14.20;84.30;;;;;;5044133;28;20026;-55
2023/04/18 00:31:49;;;;;;;47.45;9.57;;;14.20;84.50;;;;;;5045647;28;20033;-55
2023/04/18 00:34:14;;;;;;;41.17;9.13;;;14.10;84.30;;;;;;5044013;28;20057;-55
2023/04/18 00:36:40;;;;;;;31.15;8.10;;;14.10;84.30;;;;;;5044017;28;20041;-55
2023/04/18 00:39:05;;;;;;;36.60;8.85;;;14.10;84.40;;;;;;5044127;28;20228;-55
2023/04/18 00:41:31;;;;;;;41.30;8.07;;;14.10;84.50;;;;;;5044085;28;20025;-55
2023/04/18 00:43:57;;;;;;;28.63;8.20;;;14.10;84.50;;;;;;5045441;28;20085;-55
2023/04/18 00:46:22;;;;;;;37.70;8.80;;;14.10;84.50;;;;;;5044151;28;20033;-55
2023/04/18 00:48:48;;;;;;;47.53;8.27;;;14.10;84.40;;;;;;5045281;28;20032;-54
2023/04/18 00:51:14;;;;;;;28.13;8.27;;;14.00;84.60;;;;;;5043969;28;20131;-56
2023/04/18 00:53:40;;;;;;;35.25;7.75;;;14.00;84.60;;;;;;5043905;28;20069;-55
2023/04/18 00:56:06;;;;;;;27.65;7.38;;;14.00;84.50;;;;;;5043629;28;20037;-55
2023/04/18 00:58:31;;;;;;;48.13;7.93;;;14.00;84.60;;;;;;5027406;28;20014;-55
2023/04/18 01:00:57;;;;;;;30.52;7.15;;;14.00;84.70;;;;;;5027181;28;20033;-55
2023/04/18 01:03:24;;;;;;;36.40;8.15;;;14.00;85.20;;;;;;5043822;28;20032;-55
2023/04/18 01:05:50;;;;;;;40.65;8.57;;;14.00;84.60;;;;;;5043849;28;20051;-55
2023/04/18 01:08:16;;;;;;;35.03;7.03;;;13.90;84.70;;;;;;5043782;28;20045;-55
2023/04/18 01:10:42;;;;;;;32.95;7.65;;;14.00;84.70;;;;;;5043877;28;20060;-55
2023/04/18 01:13:18;;;;;;;29.08;6.75;;;14.00;84.70;;;;;;5043618;28;20446;-55
2023/04/18 01:15:48;;;;;;;31.13;6.80;;;13.90;85.40;;;;;;5043629;28;20079;-55
2023/04/18 01:18:17;;;;;;;27.27;7.45;;;13.90;84.70;;;;;;5043665;28;20029;-55
2023/04/18 01:20:47;;;;;;;40.22;7.35;;;13.90;84.70;;;;;;5046653;28;20085;-55
2023/04/18 01:23:16;;;;;;;26.92;6.80;;;13.90;84.70;;;;;;5031313;28;20018;-57
2023/04/18 01:25:42;;;;;;;32.53;7.55;;;13.80;84.80;;;;;;5047719;28;20052;-57
2023/04/18 01:28:08;;;;;;;23.58;6.40;;;13.80;84.80;;;;;;5047458;28;20021;-57
2023/04/18 01:30:34;;;;;;;27.83;6.05;;;13.80;84.90;;;;;;5049160;28;20041;-57
2023/04/18 01:33:00;;;;;;;25.73;6.55;;;13.80;84.90;;;;;;5047568;28;20108;-57
2023/04/18 01:35:26;;;;;;;22.73;5.90;;;13.80;85.00;;;;;;5047352;28;20060;-57
2023/04/18 01:37:52;;;;;;;23.70;7.18;;;13.80;85.00;;;;;;5047594;28;20022;-57
2023/04/18 01:40:18;;;;;;;27.80;6.50;;;13.80;85.00;;;;;;5047345;28;20089;-57
2023/04/18 01:42:43;;;;;;;27.92;6.78;;;13.80;85.00;;;;;;5047339;28;20033;-57
2023/04/18 01:45:10;;;;;;;29.88;7.05;;;13.80;85.00;;;;;;5047350;28;20037;-57
2023/04/18 01:47:36;;;;;;;24.85;7.40;;;13.80;85.00;;;;;;5047292;28;20052;-57
2023/04/18 01:50:02;;;;;;;25.65;7.57;;;13.80;84.90;;;;;;5048578;28;20041;-57
2023/04/18 01:52:28;;;;;;;28.48;7.90;;;13.80;84.90;;;;;;5048368;28;20056;-57
2023/04/18 01:54:53;;;;;;;31.23;7.57;;;13.80;85.00;;;;;;5030344;28;20045;-57
2023/04/18 01:57:19;;;;;;;25.63;7.20;;;13.80;85.00;;;;;;5047314;28;20104;-57
2023/04/18 01:59:44;;;;;;;27.48;7.25;;;13.70;85.00;;;;;;5048446;28;20409;-57
2023/04/18 02:02:10;;;;;;;19.13;6.55;;;13.70;85.10;;;;;;5047065;28;20049;-57
2023/04/18 02:04:35;;;;;;;23.50;6.95;;;13.70;85.20;;;;;;5048221;28;20075;-57
2023/04/18 02:07:01;;;;;;;21.52;6.20;;;13.70;85.20;;;;;;5048137;28;20060;-57
2023/04/18 02:09:27;;;;;;;24.42;6.32;;;13.70;85.30;;;;;;5046740;28;20037;-57
2023/04/18 02:11:55;;;;;;;27.73;7.05;;;13.70;85.30;;;;;;5048056;28;20036;-57
2023/04/18 02:14:20;;;;;;;17.33;6.28;;;13.60;85.20;;;;;;5046620;28;20041;-57
2023/04/18 02:16:46;;;;;;;22.33;6.82;;;13.60;85.30;;;;;;5046358;28;20030;-57
2023/04/18 02:19:11;;;;;;;17.75;6.63;;;13.60;85.50;;;;;;5047750;28;20053;-57
2023/04/18 02:21:37;;;;;;;25.63;7.03;;;13.60;85.40;;;;;;5048137;28;20018;-57
2023/04/18 02:24:02;;;;;;;20.73;7.75;;;13.60;85.50;;;;;;5046652;28;20018;-57
2023/04/18 02:26:28;;;;;;;21.08;7.38;;;13.60;85.50;;;;;;5046223;28;20083;-57
2023/04/18 02:28:54;;;;;;;17.90;7.60;;;13.60;85.50;;;;;;5047747;28;20036;-57
2023/04/18 02:31:20;;;;;;;23.02;7.75;;;13.60;85.70;;;;;;5045853;28;20280;-57
2023/04/18 02:33:46;;;;;;;18.75;6.82;;;13.60;85.70;;;;;;5046279;28;20048;-57
2023/04/18 02:36:12;;;;;;;18.05;6.50;;;13.60;85.70;;;;;;5046079;28;20034;-55
2023/04/18 02:38:37;;;;;;;12.82;6.35;;;13.60;85.70;;;;;;5047329;28;20022;-55
2023/04/18 02:41:03;;;;;;;19.30;6.15;;;13.60;85.70;;;;;;5047565;28;20029;-55
2023/04/18 02:43:29;;;;;;;18.90;6.85;;;13.60;85.70;;;;;;5047418;28;20142;-55
2023/04/18 02:45:55;;;;;;;19.92;6.32;;;13.60;86.30;;;;;;5029471;28;20033;-55
2023/04/18 02:48:21;;;;;;;19.13;5.90;;;13.60;85.70;;;;;;5046393;28;20616;-55
2023/04/18 02:50:47;;;;;;;19.55;6.10;;;13.60;85.80;;;;;;5029383;28;20124;-55
2023/04/18 02:53:13;;;;;;;14.18;5.82;;;13.60;85.90;;;;;;5045992;28;20041;-56
2023/04/18 02:55:38;;;;;;;15.52;5.38;;;13.60;85.90;;;;;;5047313;28;20033;-55
2023/04/18 02:58:04;;;;;;;12.45;5.03;;;13.60;86.10;;;;;;5045974;28;20025;-55
2023/04/18 03:00:29;;;;;;;16.90;5.55;;;13.60;86.20;;;;;;5045820;28;20492;-55
2023/04/18 03:02:55;;;;;;;15.05;5.53;;;13.60;86.30;;;;;;5046071;28;20084;-55
2023/04/18 03:05:21;;;;;;;13.50;5.90;;;13.60;86.40;;;;;;5047127;28;20034;-55
2023/04/18 03:07:46;;;;;;;12.13;5.05;;;13.50;86.40;;;;;;5045675;28;20021;-55
2023/04/18 03:10:12;;;;;;;14.27;5.07;;;13.50;86.50;;;;;;5045652;28;20033;-55
2023/04/18 03:12:37;;;;;;;12.82;4.82;;;13.50;86.60;;;;;;5045607;28;20030;-55
2023/04/18 03:15:03;;;;;;;12.43;4.68;;;13.50;86.60;;;;;;5045692;28;20093;-55
2023/04/18 03:17:30;;;;;;;18.73;5.32;;;13.50;86.80;;;;;;5046720;28;20142;-55
2023/04/18 03:19:55;;;;;;;15.40;5.28;;;13.50;86.90;;;;;;5045373;28;20029;-55
2023/04/18 03:22:21;;;;;;;14.98;5.07;;;13.50;86.90;;;;;;5045409;28;20543;-55
2023/04/18 03:24:46;;;;;;;11.38;5.00;;;13.50;87.10;;;;;;5046726;28;20068;-55
2023/04/18 03:27:12;;;;;;;15.82;5.07;;;13.50;87.80;;;;;;5045447;28;20026;-55
2023/04/18 03:29:38;;;;;;;9.90;4.75;;;13.50;87.20;;;;;;5045195;28;20065;-55
2023/04/18 03:32:04;;;;;;;11.15;5.30;;;13.50;87.20;;;;;;5045246;28;20033;-55
2023/04/18 03:34:29;;;;;;;11.82;5.88;;;13.50;87.20;;;;;;5046711;28;20053;-55
2023/04/18 03:36:55;;;;;;;15.35;7.32;;;13.50;87.20;;;;;;5045285;28;20049;-55
2023/04/18 03:39:20;;;;;;;20.13;7.45;;;13.50;87.20;;;;;;5046396;28;20029;-55
2023/04/18 03:41:46;;;;;;;15.90;6.55;;;13.50;87.20;;;;;;5045145;28;20061;-55
2023/04/18 03:44:11;;;;;;;18.50;6.95;;;13.50;87.20;;;;;;5043971;28;20091;-55
2023/04/18 03:46:37;;;;;;;23.55;7.15;;;13.50;87.20;;;;;;5044957;28;20040;-55
2023/04/18 03:49:03;;;;;;;20.83;7.28;;;13.50;87.20;;;;;;5044926;28;20378;-55
2023/04/18 03:51:42;;;;;;;15.70;6.68;;;13.50;87.20;;;;;;5045997;28;20048;-55
2023/04/18 03:54:07;;;;;;;22.88;7.53;;;13.50;87.20;;;;;;5045037;28;20029;-55
2023/04/18 03:56:33;;;;;;;19.45;7.28;;;13.40;87.20;;;;;;5044745;28;20052;-55
2023/04/18 03:58:58;;;;;;;25.77;7.93;;;13.40;87.20;;;;;;5044824;28;20032;-55
2023/04/18 04:01:24;;;;;;;26.70;9.02;;;13.40;87.20;;;;;;5044688;28;20026;-55
2023/04/18 04:03:49;;;;;;;29.15;8.75;;;13.40;87.20;;;;;;5044543;28;20025;-55
2023/04/18 04:06:16;;;;;;;30.33;9.27;;;13.40;87.20;;;;;;5044979;28;20052;-55
2023/04/18 04:08:42;;;;;;;22.95;8.23;;;13.40;87.20;;;;;;5044963;28;20033;-55
2023/04/18 04:11:07;;;;;;;22.00;8.15;;;13.40;87.20;;;;;;5046094;28;20099;-55
2023/04/18 04:13:33;;;;;;;26.85;8.85;;;13.40;87.20;;;;;;5045809;28;20047;-55
2023/04/18 04:15:58;;;;;;;30.60;8.20;;;13.40;87.30;;;;;;5045727;28;20033;-55
2023/04/18 04:18:29;;;;;;;31.55;8.35;;;13.40;87.30;;;;;;5044375;28;20013;-55
2023/04/18 04:20:58;;;;;;;18.35;7.85;;;13.40;87.40;;;;;;5044463;28;20033;-55
2023/04/18 04:23:24;;;;;;;24.08;8.48;;;13.40;87.40;;;;;;5027897;28;20026;-55
2023/04/18 04:25:51;;;;;;;18.73;6.85;;;13.40;87.40;;;;;;5027862;28;20029;-55
2023/04/18 04:28:21;;;;;;;19.05;7.60;;;13.30;87.40;;;;;;5045611;28;20032;-55
2023/04/18 04:30:49;;;;;;;28.50;8.75;;;13.30;87.40;;;;;;5044105;28;20045;-55
2023/04/18 04:33:19;;;;;;;30.02;9.35;;;13.40;87.40;;;;;;5027801;28;20052;-55
2023/04/18 04:35:48;;;;;;;35.30;8.45;;;13.40;87.40;;;;;;5045319;28;20104;-55
2023/04/18 04:38:14;;;;;;;34.80;6.95;;;13.40;87.30;;;;;;5044307;28;20033;-55
2023/04/18 04:40:40;;;;;;;23.17;6.90;;;13.40;87.30;;;;;;5044118;28;20033;-55
2023/04/18 04:43:06;;;;;;;27.40;7.05;;;13.40;87.30;;;;;;5043945;28;20041;-55
2023/04/18 04:45:32;;;;;;;28.02;8.00;;;13.30;87.20;;;;;;5044076;28;20037;-55
2023/04/18 04:47:58;;;;;;;22.27;7.40;;;13.30;87.20;;;;;;5043925;28;20026;-55
2023/04/18 04:50:23;;;;;;;22.40;6.47;;;13.30;87.20;;;;;;5043753;28;20049;-55
2023/04/18 04:52:49;;;;;;;18.63;6.13;;;13.30;87.20;;;;;;5045080;28;20026;-55
2023/04/18 04:55:16;;;;;;;28.08;6.55;;;13.30;87.20;;;;;;5043519;28;20021;-55
2023/04/18 04:57:41;;;;;;;18.67;6.35;;;13.30;87.20;;;;;;5043667;28;20036;-55
2023/04/18 05:00:08;;;;;;;19.55;7.07;;;13.30;87.30;;;;;;5043844;28;20030;-55
2023/04/18 05:02:33;;;;;;;49.08;6.88;;;13.30;87.40;;;;;;5043829;28;20022;-55
2023/04/18 05:04:59;;;;;;;19.52;6.88;;;13.30;87.50;;;;;;5043639;28;20427;-55
2023/04/18 05:07:25;;;;;;;23.27;6.82;;;13.30;87.80;;;;;;5043767;28;20026;-55
2023/04/18 05:09:52;;;;;;;11.93;5.60;;;13.30;88.00;;;;;;5043643;28;20034;-55
2023/04/18 05:12:17;;;;;;;18.38;6.30;;;13.30;88.00;;;;;;5027503;28;20025;-55
2023/04/18 05:14:43;;;;;;;12.30;5.32;;;13.30;88.40;;;;;;5043723;28;20041;-55
2023/04/18 05:17:08;;;;;;;16.77;5.90;;;13.30;88.30;;;;;;5043479;28;20124;-55
2023/04/18 05:19:34;;;;;;;23.63;5.93;;;13.30;88.10;;;;;;5043866;28;20098;-55
2023/04/18 05:22:00;;;;;;;11.32;6.35;;;13.30;88.00;;;;;;5043700;28;20029;-55
2023/04/18 05:24:25;;;;;;;12.30;5.88;;;13.30;87.90;;;;;;5045006;28;20030;-56
2023/04/18 05:26:51;;;;;;;14.80;6.15;;;13.30;88.00;;;;;;5027039;28;20029;-55
2023/04/18 05:29:17;;;;;;;17.80;5.97;;;13.20;88.00;;;;;;5043451;28;20038;-55
2023/04/18 05:31:42;;;;;;;26.40;7.85;;;13.30;88.10;;;;;;5043654;28;20034;-55
2023/04/18 05:34:08;;;;;;;28.23;8.45;;;13.30;88.20;;;;;;5043205;28;20029;-55
2023/04/18 05:36:33;;;;;;;29.75;7.78;;;13.20;88.10;;;;;;5044473;28;20072;-54
2023/04/18 05:38:59;;;;;;;23.73;6.95;;;13.20;88.20;;;;;;5043457;28;20040;-55
2023/04/18 05:41:24;;;;;;;22.90;7.07;;;13.20;88.30;;;;;;5043182;28;20029;-55
2023/04/18 05:43:50;;;;;;;17.27;6.28;;;13.20;88.40;;;;;;5044594;28;20110;-55
2023/04/18 05:46:15;;;;;;;19.88;6.28;;;13.20;88.40;;;;;;5044873;28;20029;-55
2023/04/18 05:48:41;;;;;;;19.25;6.60;;;13.20;88.50;;;;;;5043322;28;20030;-55
2023/04/18 05:51:06;;;;;;;22.10;6.40;;;13.20;88.40;;;;;;5043234;28;20065;-55
2023/04/18 05:53:32;;;;;;;17.15;5.82;;;13.20;88.40;;;;;;5043471;28;20048;-55
2023/04/18 05:55:58;;;;;;;12.77;5.38;;;13.20;88.50;;;;;;5043356;28;20037;-55
2023/04/18 05:58:24;;;;;;;15.13;5.72;;;13.20;88.50;;;;;;5044484;28;20026;-55
2023/04/18 06:00:51;;;;;;;15.82;6.18;;;13.20;88.50;;;;;;5042916;28;20091;-55
2023/04/18 06:03:16;;;;;;;15.50;5.82;;;13.20;88.40;;;;;;5043081;28;20013;-55
2023/04/18 06:05:42;;;;;;;17.30;5.20;;;13.20;88.40;;;;;;5042640;28;20445;-55
2023/04/18 06:08:07;;;;;;;18.15;5.80;;;13.20;88.50;;;;;;5046238;28;20030;-55
2023/04/18 06:10:34;;;;;;;15.48;5.72;;;13.10;88.60;;;;;;5047452;28;20037;-55
2023/04/18 06:13:00;;;;;;;14.60;5.32;;;13.10;88.70;;;;;;5047985;28;20029;-55
2023/04/18 06:15:25;;;;;;;12.07;5.82;;;13.10;88.80;;;;;;5046297;28;20088;-55
2023/04/18 06:17:51;;;;;;;10.65;5.28;;;13.10;88.90;;;;;;5046527;28;20381;-55
2023/04/18 06:20:16;;;;;;;11.35;5.65;;;13.10;89.00;;;;;;5043575;28;20085;-55
2023/04/18 06:22:42;;;;;;;10.30;5.18;;;13.10;89.10;;;;;;5044467;28;20029;-55
2023/04/18 06:25:08;;;;;;;6.93;4.43;;;13.10;89.00;;;;;;5047362;28;20029;-55
2023/04/18 06:27:35;;;;;;;9.88;4.75;;;13.10;89.00;;;;;;5045904;28;20026;-56
2023/04/18 06:30:01;;;;;;;11.52;5.03;;;13.10;89.10;;;;;;5045107;28;20060;-55
2023/04/18 06:32:26;;;;;;;8.60;5.25;;;13.10;89.20;;;;;;5042353;28;20038;-55
2023/04/18 06:34:52;;;;;;;8.38;5.10;;;13.10;89.20;;;;;;5043064;28;20030;-55
2023/04/18 06:37:17;;;;;;;8.85;5.05;;;13.10;89.20;;;;;;5057198;28;20029;-55
2023/04/18 06:39:43;;;;;;;11.02;5.50;;;13.10;89.20;;;;;;5044448;28;20029;-55
2023/04/18 06:42:08;;;;;;;5.50;4.90;;;13.10;89.30;;;;;;5042180;28;20021;-55
2023/04/18 06:44:35;;;;;;;8.23;4.95;;;13.10;89.30;;;;;;5046479;28;20029;-55
2023/04/18 06:47:01;;;;;;;9.05;5.10;;;13.10;89.40;;;;;;5043630;28;20052;-55
2023/04/18 06:49:26;;;;;;;11.05;5.25;;;13.10;89.40;;;;;;5043042;28;20037;-55
2023/04/18 06:51:52;;;;;;;6.00;4.45;;;13.00;89.40;;;;;;5046556;28;20029;-55
2023/04/18 06:54:17;;;;;;;9.13;5.03;;;13.00;89.40;;;;;;5045027;28;20033;-56
2023/04/18 06:56:43;;;;;;;8.30;5.30;;;13.10;89.40;;;;;;5044724;28;20037;-55
2023/04/18 06:59:08;;;;;;;5.95;4.80;;;13.00;90.00;;;;;;5016185;28;20029;-55
2023/04/18 07:01:38;;;;;;;9.00;5.10;;;13.00;89.50;;;;;;5040351;28;20029;-55
2023/04/18 07:04:03;;;;;;;7.28;4.35;;;13.00;89.60;;;;;;5027493;28;20037;-55
2023/04/18 07:06:29;;;;;;;7.45;5.00;;;13.00;89.70;;;;;;5029917;28;20022;-55
2023/04/18 07:08:58;;;;;;;9.35;5.05;;;13.00;89.70;;;;;;5043895;28;20032;-55
2023/04/18 07:11:24;;;;;;;7.25;5.18;;;13.00;89.80;;;;;;5044383;28;20044;-55
2023/04/18 07:13:50;;;;;;;7.10;5.03;;;13.00;89.90;;;;;;5042298;28;20026;-54
2023/04/18 07:16:15;;;;;;;10.75;5.05;;;13.00;90.00;;;;;;5040473;28;20034;-57
2023/04/18 07:18:41;;;;;;;8.55;5.20;;;13.00;89.90;;;;;;5034804;28;20039;-57
2023/04/18 07:21:06;;;;;;;7.75;4.90;;;13.10;90.00;;;;;;5041713;28;20046;-57
2023/04/18 07:23:32;;;;;;;8.77;4.95;;;13.10;90.00;;;;;;5032948;28;20018;-57
2023/04/18 07:26:00;;;;;;;7.22;4.55;;;13.10;89.90;;;;;;5041676;28;20029;-58
2023/04/18 07:28:25;;;;;;;10.15;5.03;;;13.10;89.90;;;;;;5028237;28;20026;-57
2023/04/18 07:30:51;;;;;;;12.82;5.20;;;13.10;89.90;;;;;;5035910;28;20119;-57
2023/04/18 07:33:17;;;;;;;8.82;5.07;;;13.10;89.90;;;;;;5036555;28;20032;-57
2023/04/18 07:35:44;;;;;;;9.20;5.13;;;13.10;89.90;;;;;;5025698;28;20072;-57
2023/04/18 07:38:13;;;;;;;12.77;5.47;;;13.20;89.80;;;;;;5024604;28;20022;-57
2023/04/18 07:40:39;;;;;;;14.05;5.78;;;13.20;89.90;;;;;;5043938;28;20125;-59
2023/04/18 07:43:04;;;;;;;25.08;7.03;;;13.20;89.90;;;;;;5043485;28;20139;-60
2023/04/18 07:45:30;;;;;;;18.38;6.07;;;13.20;89.90;;;;;;5042027;28;20029;-60
2023/04/18 07:47:55;;;;;;;21.92;6.47;;;13.20;89.90;;;;;;5042361;28;20116;-59
2023/04/18 07:50:23;;;;;;;46.78;7.75;;;13.20;89.90;;;;;;5022786;28;20088;-60
2023/04/18 07:52:48;;;;;;;21.38;7.15;;;13.20;89.90;;;;;;5038544;28;20025;-59
2023/04/18 07:55:14;;;;;;;20.23;7.32;;;13.30;89.90;;;;;;5023225;28;20041;-60
2023/04/18 07:57:42;;;;;;;24.45;7.03;;;13.30;89.80;;;;;;5066714;28;20034;-59
2023/04/18 08:00:09;;;;;;;23.38;7.53;;;13.30;89.70;;;;;;5039614;28;20045;-59
2023/04/18 08:02:34;;;;;;;25.30;7.25;;;13.30;89.60;;;;;;5042137;28;20093;-59
2023/04/18 08:05:00;;;;;;;16.65;6.25;;;13.30;89.70;;;;;;5043791;28;20056;-60
2023/04/18 08:07:25;;;;;;;19.85;7.07;;;13.40;89.70;;;;;;5031249;28;20116;-60
2023/04/18 08:09:51;;;;;;;16.40;7.10;;;13.40;89.70;;;;;;5006015;28;20076;-59
2023/04/18 08:12:17;;;;;;;21.88;6.93;;;13.40;89.70;;;;;;5006896;28;20041;-60
2023/04/18 08:14:42;;;;;;;19.08;6.55;;;13.40;89.60;;;;;;5024074;28;20030;-60
2023/04/18 08:17:08;;;;;;;13.18;7.90;;;13.50;89.70;;;;;;5022710;28;20349;-59
2023/04/18 08:19:33;;;;;;;15.07;7.50;;;13.50;89.70;;;;;;5024038;28;20044;-59
2023/04/18 08:22:11;;;;;;;21.02;7.63;;;13.50;90.20;;;;;;5057242;28;20064;-59
2023/04/18 08:24:37;;;;;;;23.75;7.65;;;13.50;89.80;;;;;;5056169;28;20079;-59
2023/04/18 08:27:03;;;;;;;16.10;6.32;;;13.50;89.70;;;;;;5056845;28;20025;-59
2023/04/18 08:29:28;;;;;;;19.90;7.20;;;13.50;89.70;;;;;;5039130;28;20034;-59
2023/04/18 08:31:54;;;;;;;21.73;7.72;;;13.50;89.70;;;;;;5040012;28;20033;-59
2023/04/18 08:34:20;;;;;;;19.17;7.57;;;13.60;89.70;;;;;;5007253;28;20180;-60
2023/04/18 08:36:45;;;;;;;17.98;7.18;;;13.60;89.80;;;;;;5023754;28;20037;-59
2023/04/18 08:39:11;;;;;;;17.35;7.07;;;13.60;89.70;;;;;;5023592;28;20160;-59
2023/04/18 08:41:36;;;;;;;22.38;7.55;;;13.60;89.70;;;;;;5039319;28;20048;-59
2023/04/18 08:44:02;;;;;;;19.83;7.90;;;13.60;89.70;;;;;;5024260;28;20022;-60
2023/04/18 08:46:28;;;;;;;25.42;7.95;;;13.60;89.70;;;;;;5056300;28;20018;-59
2023/04/18 08:48:58;;;;;;;18.92;8.40;;;13.70;89.90;;;;;;5038615;28;20153;-59
2023/04/18 08:51:24;;;;;;;20.25;8.10;;;13.70;89.90;;;;;;5055635;28;20030;-59
2023/04/18 08:53:50;;;;;;;13.85;7.60;;;13.70;89.80;;;;;;5080945;28;20029;-59
2023/04/18 08:56:16;;;;;;;13.55;7.60;;;13.70;90.20;;;;;;5048703;28;20033;-59
2023/04/18 08:58:43;;;;;;;17.20;7.68;;;13.80;89.80;;;;;;5044160;28;20029;-59
2023/04/18 09:01:09;;;;;;;20.83;8.13;;;13.80;89.80;;;;;;5044209;28;20025;-59
2023/04/18 09:03:36;;;;;;;15.15;7.68;;;13.80;89.80;;;;;;5043099;28;20193;-60
2023/04/18 09:06:10;;;;;;;23.05;8.00;;;13.90;89.90;;;;;;5044322;28;20042;-60
2023/04/18 09:08:35;;;;;;;21.98;7.50;;;13.90;89.80;;;;;;5022896;28;20034;-59
2023/04/18 09:11:27;;;;;;;17.55;8.05;;;13.90;89.60;;;;;;5038898;28;20446;-59
2023/04/18 09:13:55;;;;;;;13.95;7.88;;;13.90;89.60;;;;;;5042870;28;20089;-59
2023/04/18 09:16:21;;;;;;;17.08;7.65;;;13.90;90.00;;;;;;5040810;28;20038;-60
2023/04/18 09:19:06;;;;;;;17.73;6.63;;;14.00;89.30;;;;;;5039679;28;20026;-60
2023/04/18 09:21:32;;;;;;;16.30;8.18;;;14.00;89.10;;;;;;5072828;28;20069;-59
2023/04/18 09:24:22;;;;;;;14.38;7.88;;;14.00;89.00;;;;;;5041869;28;20030;-60
2023/04/18 09:26:52;;;;;;;24.17;8.02;;;14.00;88.90;;;;;;5061583;28;20036;-59
2023/04/18 09:29:21;;;;;;;19.77;8.05;;;14.00;88.80;;;;;;5042889;28;20037;-59
2023/04/18 09:32:18;;;;;;;22.92;7.78;;;14.10;88.70;;;;;;5060001;28;20032;-59
2023/04/18 09:34:43;;;;;;;20.85;8.48;;;14.10;88.60;;;;;;5018443;28;20039;-60
2023/04/18 09:37:10;;;;;;;19.15;8.18;;;14.20;88.70;;;;;;5022170;28;20066;-60
2023/04/18 09:39:40;;;;;;;16.98;8.18;;;14.20;88.60;;;;;;5040459;28;20021;-60
2023/04/18 09:42:06;;;;;;;24.95;9.13;;;14.20;88.50;;;;;;5040294;28;20030;-59
2023/04/18 09:44:32;;;;;;;18.38;8.48;;;14.30;88.50;;;;;;5043309;28;20155;-60
2023/04/18 09:46:57;;;;;;;35.55;8.88;;;14.30;88.40;;;;;;5045677;28;20029;-60
2023/04/18 09:49:23;;;;;;;28.95;8.45;;;14.30;88.50;;;;;;5045949;28;20093;-59
2023/04/18 09:51:53;;;;;;;27.90;10.52;;;14.40;88.80;;;;;;5046504;28;20052;-60
2023/04/18 09:54:19;;;;;;;31.85;9.38;;;14.40;89.00;;;;;;5046291;28;20067;-58
2023/04/18 09:56:46;;;;;;;53.58;11.68;;;14.40;88.90;;;;;;5042612;28;20041;-57
2023/04/18 09:59:11;;;;;;;30.92;9.13;;;14.40;88.80;;;;;;5037012;28;20034;-57
2023/04/18 10:01:38;;;;;;;34.42;10.00;;;14.50;88.90;;;;;;5038196;28;20032;-58
2023/04/18 10:04:06;;;;;;;37.33;10.50;;;14.50;88.80;;;;;;5045346;28;20039;-58
2023/04/18 10:06:32;;;;;;;52.35;12.02;;;14.60;88.80;;;;;;5045829;28;20048;-58
2023/04/18 10:08:58;;;;;;;42.17;10.52;;;14.60;88.70;;;;;;5057139;28;20113;-58
2023/04/18 10:11:24;;;;;;;26.27;9.43;;;14.60;88.50;;;;;;5040270;28;20021;-58
2023/04/18 10:13:51;;;;;;;100.97;15.68;;;14.60;89.00;;;;;;5032662;28;20089;-58
2023/04/18 10:16:16;;;;;;;49.72;11.85;;;14.70;88.20;;;;;;5021002;28;20120;-58
2023/04/18 10:18:42;;;;;;;69.07;12.82;;;14.70;88.10;;;;;;5051872;28;20502;-58
2023/04/18 10:21:08;;;;;;;218.55;27.95;;;14.70;87.80;;;;;;5036068;28;20041;-62
2023/04/18 10:23:35;;;;;;;184.82;23.55;;;14.80;88.10;;;;;;5034669;28;20026;-58
2023/04/18 10:26:01;;;;;;;86.00;14.55;;;14.80;88.00;;;;;;5036433;28;20057;-58
2023/04/18 10:28:41;;;;;;;78.80;15.27;;;14.90;88.00;;;;;;5035251;28;20037;-58
2023/04/18 10:31:07;;;;;;;74.53;13.63;;;14.90;87.90;;;;;;5019012;28;20565;-58
2023/04/18 10:33:32;;;;;;;46.70;10.98;;;14.90;87.70;;;;;;5019506;28;20036;-57
2023/04/18 10:36:21;;;;;;;48.33;11.48;;;15.00;87.60;;;;;;5034665;28;20053;-58
2023/04/18 10:38:49;;;;;;;66.38;12.80;;;15.00;87.30;;;;;;5067505;28;20017;-58
2023/04/18 10:41:15;;;;;;;48.75;11.50;;;15.10;87.30;;;;;;5051953;28;20102;-58
2023/04/18 10:44:06;;;;;;;56.70;11.98;;;15.10;87.20;;;;;;5019136;28;20028;-58
2023/04/18 10:46:39;;;;;;;77.40;13.25;;;15.20;87.00;;;;;;5035181;28;20057;-58
2023/04/18 10:49:22;;;;;;;43.40;11.32;;;15.20;86.90;;;;;;5034672;28;20140;-58
2023/04/18 10:51:53;;;;;;;57.85;11.63;;;15.30;86.90;;;;;;5032625;28;20078;-57
2023/04/18 10:54:40;;;;;;;49.60;11.13;;;15.30;86.80;;;;;;5034325;28;20212;-58
2023/04/18 10:57:10;;;;;;;52.67;11.38;;;15.40;86.80;;;;;;5034733;28;20072;-58
2023/04/18 10:59:43;;;;;;;60.42;12.13;;;15.50;86.40;;;;;;5036729;28;20053;-58
2023/04/18 11:02:28;;;;;;;48.92;12.07;;;15.40;86.80;;;;;;5053955;28;20014;-58
2023/04/18 11:04:55;;;;;;;60.45;13.00;;;15.50;86.70;;;;;;5034834;28;20026;-58
2023/04/18 11:07:36;;;;;;;62.38;13.85;;;15.50;86.70;;;;;;5022416;28;20145;-58
2023/04/18 11:10:03;;;;;;;68.18;13.43;;;15.60;86.90;;;;;;5040731;28;20461;-58
2023/04/18 11:12:31;;;;;;;67.78;13.35;;;15.60;86.80;;;;;;5042947;28;20033;-58
2023/04/18 11:14:57;;;;;;;51.75;12.10;;;15.60;87.00;;;;;;5032997;28;20033;-58
2023/04/18 11:17:24;;;;;;;77.07;14.15;;;15.60;86.80;;;;;;5035958;28;20133;-58
2023/04/18 11:19:58;;;;;;;46.17;12.80;;;15.70;86.70;;;;;;5035609;28;20044;-58
2023/04/18 11:22:23;;;;;;;61.35;13.48;;;15.70;86.60;;;;;;5049430;28;20525;-58
2023/04/18 11:24:49;;;;;;;61.30;13.50;;;15.80;86.30;;;;;;5063252;28;20041;-58
2023/04/18 11:27:15;;;;;;;70.22;13.27;;;15.80;86.30;;;;;;5044409;28;20146;-58
2023/04/18 11:29:40;;;;;;;58.58;12.98;;;15.80;86.80;;;;;;5054205;28;20116;-58
2023/04/18 11:32:08;;;;;;;47.28;11.55;;;15.80;85.80;;;;;;5046726;28;20033;-58
2023/04/18 11:34:37;;;;;;;42.67;12.23;;;15.80;86.30;;;;;;5042060;28;20037;-58
2023/04/18 11:37:06;;;;;;;51.05;11.68;;;15.80;85.90;;;;;;5057911;28;20041;-58
2023/04/18 11:39:41;;;;;;;69.32;13.32;;;15.90;85.60;;;;;;5039352;28;20107;-58
2023/04/18 11:42:07;;;;;;;71.75;14.38;;;16.20;86.20;;;;;;5060610;28;20028;-58
2023/04/18 11:44:34;;;;;;;42.72;10.13;;;16.00;85.90;;;;;;5047962;28;20085;-58
2023/04/18 11:46:59;;;;;;;35.35;10.05;;;16.00;85.70;;;;;;5052892;28;20025;-58
2023/04/18 11:49:26;;;;;;;38.83;10.52;;;16.00;85.60;;;;;;5046752;28;20029;-58
2023/04/18 11:51:52;;;;;;;41.53;12.20;;;16.00;85.40;;;;;;5039986;28;20044;-58
2023/04/18 11:54:40;;;;;;;58.53;11.02;;;16.10;85.50;;;;;;5043054;28;20041;-59
2023/04/18 11:57:16;;;;;;;70.45;12.90;;;16.20;85.10;;;;;;5042206;28;20021;-58
2023/04/18 11:59:50;;;;;;;56.15;11.95;;;16.20;84.90;;;;;;5040272;28;20059;-58
2023/04/18 12:02:15;;;;;;;53.05;11.88;;;16.30;84.60;;;;;;5040681;28;20021;-58
2023/04/18 12:04:52;;;;;;;51.25;11.90;;;16.40;84.10;;;;;;5038134;28;20077;-58
2023/04/18 12:07:30;;;;;;;64.88;13.20;;;16.40;84.00;;;;;;5031717;28;20060;-58
2023/04/18 12:09:56;;;;;;;70.57;14.45;;;16.40;84.50;;;;;;5031941;28;20026;-58
2023/04/18 12:12:21;;;;;;;48.30;11.88;;;16.50;84.40;;;;;;5057523;28;20033;-58
2023/04/18 12:14:47;;;;;;;38.80;11.27;;;16.60;84.30;;;;;;5042284;28;20037;-58
2023/04/18 12:17:12;;;;;;;65.88;13.50;;;16.60;83.60;;;;;;5043780;28;20033;-58
2023/04/18 12:19:44;;;;;;;74.82;14.50;;;16.70;83.80;;;;;;5043121;28;20039;-58
2023/04/18 12:22:09;;;;;;;68.13;12.40;;;16.70;84.10;;;;;;5060053;28;20028;-58
2023/04/18 12:24:36;;;;;;;74.60;14.05;;;16.70;83.80;;;;;;5042825;28;20112;-58
2023/04/18 12:27:02;;;;;;;112.18;16.25;;;16.80;83.70;;;;;;5033535;28;20040;-58
2023/04/18 12:29:28;;;;;;;101.93;17.13;;;16.90;84.40;;;;;;5042690;28;20087;-58
2023/04/18 12:31:53;;;;;;;106.03;15.07;;;16.90;84.10;;;;;;5024491;28;20038;-58
2023/04/18 12:34:19;;;;;;;65.15;12.23;;;16.90;83.80;;;;;;5060352;28;20029;-59